Time;durP1;ratioP1;P1;durP2;ratioP2;P2;SDS_P1;SDS_P2;PMS_P1;PMS_P2;Temp;Humidity;BMP_temperature;BMP_pressure;BME280_temperature;BME280_humidity;BME280_pressure;Samples;Min_cycle;Max_cycle;Signal;HPM_P1;HPM_P2
2022/11/24 00:01:24;;;;;;;12.15;5.22;;;7.60;99.90;;;;;;6215564;23;20087;-87
2022/11/24 00:03:54;;;;;;;8.85;3.83;;;8.10;99.90;;;;;;6188292;23;20115;-87
2022/11/24 00:06:20;;;;;;;8.52;3.80;;;5.70;99.90;;;;;;6215295;23;20078;-86
2022/11/24 00:08:46;;;;;;;8.43;4.45;;;7.90;99.90;;;;;;6215288;23;20016;-85
2022/11/24 00:11:17;;;;;;;10.68;4.30;;;7.20;99.90;;;;;;6215511;23;20043;-88
2022/11/24 00:13:44;;;;;;;13.15;4.20;;;7.00;99.90;;;;;;6215048;23;20400;-86
2022/11/24 00:16:18;;;;;;;9.15;4.60;;;7.30;99.90;;;;;;6188550;23;20032;-85
2022/11/24 00:18:46;;;;;;;13.05;5.38;;;7.70;99.90;;;;;;6215253;23;20028;-86
2022/11/24 00:21:13;;;;;;;13.18;5.68;;;7.30;99.90;;;;;;6215442;23;20013;-85
2022/11/24 00:23:38;;;;;;;13.80;5.32;;;7.40;99.90;;;;;;6215453;23;20092;-86
2022/11/24 00:26:10;;;;;;;15.80;6.50;;;7.00;99.90;;;;;;6215242;23;20067;-86
2022/11/24 00:28:37;;;;;;;9.23;4.70;;;7.50;99.90;;;;;;6188484;23;20016;-85
2022/11/24 00:31:05;;;;;;;14.45;4.78;;;7.30;99.90;;;;;;6189808;23;20021;-86
2022/11/24 00:33:31;;;;;;;11.57;4.75;;;7.00;99.90;;;;;;6216793;23;20012;-85
2022/11/24 00:35:58;;;;;;;11.80;5.00;;;7.20;99.90;;;;;;6190221;23;20059;-85
2022/11/24 00:38:24;;;;;;;13.07;5.13;;;7.20;99.90;;;;;;6216758;23;20023;-87
2022/11/24 00:40:50;;;;;;;7.65;4.47;;;7.40;99.90;;;;;;6217182;23;20009;-85
2022/11/24 00:43:16;;;;;;;13.82;4.25;;;7.10;99.90;;;;;;6217287;23;20017;-85
2022/11/24 00:45:42;;;;;;;7.97;3.50;;;5.80;99.90;;;;;;6189851;23;20078;-85
2022/11/24 00:48:08;;;;;;;10.00;3.63;;;6.40;99.90;;;;;;6216965;23;20099;-85
2022/11/24 00:50:34;;;;;;;8.70;4.40;;;6.80;99.90;;;;;;6216725;23;20020;-85
2022/11/24 00:53:00;;;;;;;7.90;3.50;;;6.70;99.90;;;;;;6216539;23;20013;-85
2022/11/24 00:55:26;;;;;;;8.77;4.22;;;7.00;99.90;;;;;;6190556;23;20023;-86
2022/11/24 00:57:51;;;;;;;9.32;4.45;;;6.90;99.90;;;;;;6216791;23;20020;-85
2022/11/24 01:00:17;;;;;;;13.82;4.10;;;7.20;99.90;;;;;;6216460;23;20502;-85
2022/11/24 01:02:43;;;;;;;12.32;4.30;;;6.60;99.90;;;;;;6217002;23;20020;-86
2022/11/24 01:05:09;;;;;;;11.90;4.32;;;7.60;99.90;;;;;;6216414;23;20031;-85
2022/11/24 01:07:35;;;;;;;10.20;4.03;;;5.70;99.90;;;;;;6190504;23;20025;-85
2022/11/24 01:10:01;;;;;;;9.73;4.05;;;7.30;99.90;;;;;;6190369;23;20017;-85
2022/11/24 01:12:27;;;;;;;11.77;4.32;;;6.90;99.90;;;;;;6189848;23;20404;-86
2022/11/24 01:14:52;;;;;;;11.18;4.30;;;5.80;99.90;;;;;;6189752;23;20343;-86
2022/11/24 01:17:18;;;;;;;11.75;4.30;;;7.00;99.90;;;;;;6216940;23;20021;-85
2022/11/24 01:19:46;;;;;;;14.75;4.03;;;7.30;99.90;;;;;;6189798;23;20016;-86
2022/11/24 01:22:12;;;;;;;15.00;4.72;;;7.40;99.90;;;;;;6216543;23;20016;-86
2022/11/24 01:24:38;;;;;;;12.82;4.28;;;7.10;99.90;;;;;;6189876;23;20048;-85
2022/11/24 01:27:03;;;;;;;14.52;4.75;;;7.00;99.90;;;;;;6216758;23;20027;-84
2022/11/24 01:29:29;;;;;;;11.45;4.30;;;5.90;99.90;;;;;;6189766;23;20021;-85
2022/11/24 01:31:55;;;;;;;10.30;4.05;;;8.20;99.90;;;;;;6216480;23;20024;-84
2022/11/24 01:34:20;;;;;;;17.65;4.07;;;6.80;99.90;;;;;;6215862;23;20451;-85
2022/11/24 01:36:46;;;;;;;16.48;4.40;;;6.80;99.90;;;;;;6164919;23;20016;-85
2022/11/24 01:39:12;;;;;;;10.90;3.20;;;6.80;99.90;;;;;;6189850;23;20024;-85
2022/11/24 01:41:38;;;;;;;12.77;3.45;;;7.30;99.90;;;;;;6215936;23;20043;-86
2022/11/24 01:44:25;;;;;;;11.18;3.90;;;7.80;99.90;;;;;;6216665;23;20012;-85
2022/11/24 01:47:11;;;;;;;10.65;3.80;;;6.80;99.90;;;;;;6216628;23;20312;-86
2022/11/24 01:49:45;;;;;;;12.52;3.17;;;7.20;99.90;;;;;;6066325;23;20335;-84
2022/11/24 01:52:41;;;;;;;15.75;3.53;;;7.60;99.90;;;;;;6042263;23;20093;-85
2022/11/24 01:55:14;;;;;;;5.13;2.78;;;6.80;99.90;;;;;;6066547;23;20047;-85
2022/11/24 01:57:49;;;;;;;9.18;2.38;;;6.70;99.90;;;;;;6066346;23;20062;-85
2022/11/24 02:00:17;;;;;;;13.07;2.97;;;7.10;99.90;;;;;;6065820;23;20315;-84
2022/11/24 02:02:44;;;;;;;9.68;3.03;;;6.80;99.90;;;;;;6066282;23;20023;-85
2022/11/24 02:05:40;;;;;;;10.15;2.97;;;6.40;99.90;;;;;;6066483;23;20033;-85
2022/11/24 02:08:12;;;;;;;11.82;3.00;;;6.80;99.90;;;;;;6042214;23;20030;-86
2022/11/24 02:10:38;;;;;;;12.40;2.90;;;7.40;99.90;;;;;;6042187;23;20023;-85
2022/11/24 02:13:04;;;;;;;6.25;2.60;;;6.70;99.90;;;;;;6065816;23;20026;-86
2022/11/24 02:15:29;;;;;;;13.40;2.35;;;7.90;99.90;;;;;;6066132;23;20034;-85
2022/11/24 02:17:57;;;;;;;9.85;2.05;;;6.90;99.90;;;;;;6066112;23;20078;-85
2022/11/24 02:20:24;;;;;;;9.02;2.28;;;7.50;99.90;;;;;;6066083;23;20019;-85
2022/11/24 02:23:13;;;;;;;9.38;2.92;;;8.00;99.90;;;;;;6065892;23;20042;-87
2022/11/24 02:26:08;;;;;;;8.00;2.47;;;6.90;99.90;;;;;;6076857;23;20541;-85
2022/11/24 02:28:34;;;;;;;8.70;2.17;;;6.90;99.90;;;;;;6189292;23;20388;-86
2022/11/24 02:31:00;;;;;;;4.60;1.83;;;7.50;99.90;;;;;;6215929;23;20040;-86
2022/11/24 02:33:26;;;;;;;10.07;2.30;;;7.80;99.90;;;;;;6215315;23;20047;-86
2022/11/24 02:35:52;;;;;;;10.23;1.88;;;7.90;99.90;;;;;;6215664;23;20017;-85
2022/11/24 02:38:18;;;;;;;11.13;2.63;;;6.10;99.90;;;;;;6188958;23;20344;-85
2022/11/24 02:40:48;;;;;;;6.60;2.50;;;7.00;99.90;;;;;;6189097;23;20013;-86
2022/11/24 02:43:18;;;;;;;8.25;1.90;;;7.90;99.90;;;;;;6188784;23;20055;-85
2022/11/24 02:45:44;;;;;;;7.50;2.28;;;7.90;99.90;;;;;;6215665;23;20054;-85
2022/11/24 02:48:10;;;;;;;6.30;1.50;;;7.40;99.90;;;;;;6215927;23;20021;-85
2022/11/24 02:50:36;;;;;;;3.75;1.20;;;7.70;99.90;;;;;;6215923;23;20017;-85
2022/11/24 02:53:01;;;;;;;4.88;1.73;;;6.80;99.90;;;;;;6215368;23;20076;-85
2022/11/24 02:55:27;;;;;;;5.70;1.15;;;7.40;99.90;;;;;;6214955;23;20023;-85
2022/11/24 02:57:53;;;;;;;6.63;1.30;;;7.10;99.90;;;;;;6215892;23;20032;-86
2022/11/24 03:00:19;;;;;;;3.25;0.95;;;6.80;99.90;;;;;;6188862;23;20550;-86
2022/11/24 03:02:44;;;;;;;4.35;0.90;;;6.70;99.90;;;;;;6188782;23;20031;-85
2022/11/24 03:05:11;;;;;;;3.85;1.38;;;6.60;99.90;;;;;;6188280;23;20059;-86
2022/11/24 03:07:37;;;;;;;5.28;1.27;;;7.70;99.90;;;;;;6215838;23;20023;-87
2022/11/24 03:10:03;;;;;;;5.72;1.30;;;6.60;99.90;;;;;;6215425;23;20028;-85
2022/11/24 03:12:29;;;;;;;4.60;0.93;;;6.60;99.90;;;;;;6215789;23;20090;-88
2022/11/24 03:14:54;;;;;;;5.82;1.00;;;7.30;99.90;;;;;;6163573;23;20444;-87
2022/11/24 03:17:20;;;;;;;5.18;1.25;;;6.80;99.90;;;;;;6188860;23;20013;-85
2022/11/24 03:19:46;;;;;;;8.35;1.48;;;7.00;99.90;;;;;;6189070;23;20123;-85
2022/11/24 03:22:12;;;;;;;6.00;1.08;;;6.60;99.90;;;;;;6215795;23;20013;-90
2022/11/24 03:24:38;;;;;;;4.88;0.98;;;6.70;99.90;;;;;;6215545;23;20016;-85
2022/11/24 03:27:04;;;;;;;7.70;1.90;;;5.90;99.90;;;;;;6215517;23;20078;-92
2022/11/24 03:29:29;;;;;;;5.88;1.23;;;6.80;99.90;;;;;;6189161;23;20029;-86
2022/11/24 03:31:55;;;;;;;4.10;0.85;;;7.40;99.90;;;;;;6215426;23;20024;-85
2022/11/24 03:34:21;;;;;;;6.93;1.27;;;7.30;99.90;;;;;;6216202;23;20013;-88
2022/11/24 03:36:46;;;;;;;4.45;0.82;;;6.60;99.90;;;;;;6215202;23;20017;-87
2022/11/24 03:39:12;;;;;;;2.75;0.82;;;7.30;99.90;;;;;;6215953;23;20023;-88
2022/11/24 03:41:38;;;;;;;3.67;1.10;;;7.70;99.90;;;;;;6215803;23;20098;-87
2022/11/24 03:44:04;;;;;;;6.15;1.20;;;7.10;99.90;;;;;;6215442;23;20367;-85
2022/11/24 03:46:29;;;;;;;5.90;1.05;;;6.60;99.90;;;;;;6214944;23;20021;-85
2022/11/24 03:48:55;;;;;;;3.78;0.90;;;7.70;99.90;;;;;;6215561;23;20013;-89
2022/11/24 03:51:20;;;;;;;5.85;1.08;;;5.70;99.90;;;;;;6215801;23;20036;-86
2022/11/24 03:53:46;;;;;;;3.22;1.13;;;6.50;99.90;;;;;;6215003;23;20013;-89
2022/11/24 03:56:12;;;;;;;7.20;1.30;;;7.10;99.90;;;;;;6188632;23;20021;-85
2022/11/24 03:58:38;;;;;;;6.97;1.40;;;6.90;99.90;;;;;;6188109;23;20017;-86
2022/11/24 04:01:04;;;;;;;6.07;1.10;;;5.90;99.90;;;;;;6188695;23;20032;-85
2022/11/24 04:03:29;;;;;;;4.35;1.00;;;6.30;99.90;;;;;;6188517;23;20055;-85
2022/11/24 04:05:55;;;;;;;5.47;1.23;;;7.40;99.90;;;;;;6216949;23;20025;-86
2022/11/24 04:08:21;;;;;;;8.02;2.60;;;7.80;99.90;;;;;;6217238;23;20056;-84
2022/11/24 04:10:52;;;;;;;6.13;1.52;;;6.80;99.90;;;;;;6217634;23;20020;-86
2022/11/24 04:13:20;;;;;;;10.35;2.53;;;6.60;99.90;;;;;;6217118;23;20012;-88
2022/11/24 04:15:46;;;;;;;8.07;1.10;;;7.40;99.90;;;;;;6217071;23;20055;-85
2022/11/24 04:18:12;;;;;;;4.70;1.10;;;7.70;99.90;;;;;;6190415;23;20016;-89
2022/11/24 04:20:39;;;;;;;8.43;2.13;;;5.80;99.90;;;;;;6190270;23;20023;-85
2022/11/24 04:23:05;;;;;;;12.02;1.90;;;7.30;99.90;;;;;;6190479;23;20020;-85
2022/11/24 04:25:31;;;;;;;6.78;1.10;;;7.10;99.90;;;;;;6217409;23;20383;-86
2022/11/24 04:27:57;;;;;;;7.10;1.58;;;6.70;99.90;;;;;;6217213;23;20062;-86
2022/11/24 04:30:24;;;;;;;9.48;1.30;;;7.10;99.90;;;;;;6190376;23;20024;-86
2022/11/24 04:32:50;;;;;;;6.78;1.10;;;6.80;99.90;;;;;;6216867;23;20013;-86
2022/11/24 04:35:16;;;;;;;5.72;1.50;;;7.70;99.90;;;;;;6190156;23;20399;-86
2022/11/24 04:37:42;;;;;;;8.45;1.65;;;6.70;99.90;;;;;;6190808;23;20027;-86
2022/11/24 04:40:09;;;;;;;11.35;1.55;;;7.40;99.90;;;;;;6216675;23;20028;-86
2022/11/24 04:42:35;;;;;;;5.47;1.90;;;6.70;99.90;;;;;;6217248;23;20088;-85
2022/11/24 04:45:00;;;;;;;4.57;1.00;;;7.40;99.90;;;;;;6217203;23;20036;-85
2022/11/24 04:47:27;;;;;;;6.72;1.08;;;6.60;99.90;;;;;;6217133;23;20013;-85
2022/11/24 04:49:53;;;;;;;9.23;1.40;;;7.60;99.90;;;;;;6216872;23;20023;-86
2022/11/24 04:52:20;;;;;;;9.13;1.20;;;7.40;99.90;;;;;;6190115;23;20017;-88
2022/11/24 04:54:47;;;;;;;3.97;1.00;;;6.10;99.90;;;;;;6190251;23;20078;-86
2022/11/24 04:57:18;;;;;;;7.25;1.00;;;6.80;99.90;;;;;;6216929;23;20146;-85
2022/11/24 04:59:44;;;;;;;5.15;0.90;;;7.30;99.90;;;;;;6190433;23;20020;-85
2022/11/24 05:02:10;;;;;;;8.05;1.17;;;6.90;99.90;;;;;;6216114;23;20024;-86
2022/11/24 05:04:36;;;;;;;9.43;1.63;;;7.10;99.90;;;;;;6189936;23;20025;-85
2022/11/24 05:07:01;;;;;;;5.82;1.10;;;7.10;99.90;;;;;;6217000;23;20332;-86
2022/11/24 05:09:27;;;;;;;5.72;1.13;;;5.30;99.90;;;;;;6216767;23;20099;-87
2022/11/24 05:11:53;;;;;;;6.78;1.55;;;7.50;99.90;;;;;;6216292;23;20028;-85
2022/11/24 05:14:18;;;;;;;10.18;1.23;;;6.50;99.90;;;;;;6216912;23;20012;-86
2022/11/24 05:16:44;;;;;;;14.05;1.58;;;6.30;99.90;;;;;;6216053;23;20470;-85
2022/11/24 05:19:10;;;;;;;6.45;1.65;;;6.60;99.90;;;;;;6216552;23;20019;-87
2022/11/24 05:21:35;;;;;;;5.25;1.30;;;7.20;99.90;;;;;;6216809;23;20024;-86
2022/11/24 05:24:01;;;;;;;2.95;1.00;;;6.50;99.90;;;;;;6216311;23;20017;-87
2022/11/24 05:26:27;;;;;;;3.22;0.85;;;7.40;99.90;;;;;;6216288;23;20457;-85
2022/11/24 05:28:53;;;;;;;4.57;0.70;;;7.20;99.90;;;;;;6216364;23;20016;-86
2022/11/24 05:31:18;;;;;;;5.13;0.85;;;6.60;99.90;;;;;;6216636;23;20028;-86
2022/11/24 05:33:44;;;;;;;4.72;0.55;;;6.20;99.90;;;;;;6189300;23;20017;-85
2022/11/24 05:36:51;;;;;;;5.65;0.80;;;6.10;99.90;;;;;;6216531;23;20027;-86
2022/11/24 05:38:59;;;;;;;2.03;0.80;;;6.40;99.90;;;;;;6216319;23;20016;-86
2022/11/24 05:41:24;;;;;;;2.97;0.60;;;5.90;99.90;;;;;;6216804;23;20092;-89
2022/11/24 05:43:50;;;;;;;3.35;0.70;;;6.00;99.90;;;;;;6189793;23;20051;-86
2022/11/24 05:46:16;;;;;;;3.33;0.60;;;7.10;99.90;;;;;;6216249;23;20087;-88
2022/11/24 05:48:41;;;;;;;2.83;0.52;;;6.90;99.90;;;;;;6216481;23;20443;-86
2022/11/24 05:51:07;;;;;;;4.38;0.73;;;6.40;99.90;;;;;;6216219;23;20102;-89
2022/11/24 05:53:33;;;;;;;8.40;1.30;;;6.00;99.90;;;;;;6190212;23;20451;-89
2022/11/24 05:56:02;;;;;;;3.90;0.80;;;6.30;99.90;;;;;;6189429;23;20032;-88
2022/11/24 05:58:28;;;;;;;8.90;1.30;;;6.80;99.90;;;;;;6216314;23;20383;-86
2022/11/24 06:00:54;;;;;;;3.22;0.80;;;6.80;99.90;;;;;;6189536;23;20078;-86
2022/11/24 06:03:20;;;;;;;12.90;2.03;;;6.30;99.90;;;;;;6189546;23;20024;-89
2022/11/24 06:05:46;;;;;;;12.98;1.58;;;6.80;99.90;;;;;;6164377;23;20150;-88
2022/11/24 06:08:12;;;;;;;6.47;1.00;;;6.40;99.90;;;;;;6216493;23;20313;-86
2022/11/24 06:10:38;;;;;;;11.20;1.20;;;5.10;99.90;;;;;;6189855;23;20024;-87
2022/11/24 06:13:05;;;;;;;9.05;1.10;;;6.70;99.90;;;;;;6216353;23;20017;-87
2022/11/24 06:15:32;;;;;;;9.63;1.15;;;6.20;99.90;;;;;;6215852;23;20012;-87
2022/11/24 06:17:57;;;;;;;4.38;1.10;;;6.20;99.90;;;;;;6215898;23;20059;-87
2022/11/24 06:20:24;;;;;;;3.95;1.35;;;7.00;99.90;;;;;;6216219;23;20013;-86
2022/11/24 06:22:49;;;;;;;7.30;1.42;;;5.20;99.90;;;;;;6189102;23;20027;-86
2022/11/24 06:25:16;;;;;;;11.80;1.33;;;6.20;99.90;;;;;;6215917;23;20095;-87
2022/11/24 06:27:42;;;;;;;6.53;1.17;;;6.30;99.90;;;;;;6215726;23;20020;-86
2022/11/24 06:30:08;;;;;;;6.57;1.25;;;6.80;99.90;;;;;;6216076;23;20016;-89
2022/11/24 06:32:34;;;;;;;6.20;0.90;;;6.30;99.90;;;;;;6215627;23;20028;-85
2022/11/24 06:34:59;;;;;;;7.47;1.10;;;6.30;99.90;;;;;;6215574;23;20017;-88
2022/11/24 06:37:25;;;;;;;6.68;0.93;;;7.00;99.90;;;;;;6215739;23;20021;-86
2022/11/24 06:39:51;;;;;;;3.50;0.80;;;6.90;99.90;;;;;;6215770;23;20347;-86
2022/11/24 06:42:20;;;;;;;3.80;0.88;;;6.50;99.90;;;;;;6189336;23;20021;-87
2022/11/24 06:44:48;;;;;;;9.63;1.25;;;6.30;99.90;;;;;;6189169;23;20031;-85
2022/11/24 06:47:14;;;;;;;9.32;1.42;;;7.00;99.90;;;;;;6216123;23;20013;-84
2022/11/24 06:49:40;;;;;;;7.72;1.10;;;6.50;99.90;;;;;;6188653;23;20394;-86
2022/11/24 06:52:06;;;;;;;7.65;0.80;;;6.70;99.90;;;;;;6216125;23;20039;-88
2022/11/24 06:54:31;;;;;;;6.18;1.05;;;6.30;99.90;;;;;;6216523;23;20039;-86
2022/11/24 06:56:58;;;;;;;3.80;0.85;;;6.30;99.90;;;;;;6215557;23;20067;-85
2022/11/24 06:59:25;;;;;;;3.42;1.10;;;6.30;99.90;;;;;;6215186;23;20165;-85
2022/11/24 07:01:51;;;;;;;4.82;0.95;;;7.20;99.90;;;;;;6215739;23;20024;-85
2022/11/24 07:04:17;;;;;;;7.47;1.38;;;6.20;99.90;;;;;;6215767;23;20017;-88
2022/11/24 07:06:44;;;;;;;5.47;1.00;;;6.30;99.90;;;;;;6215895;23;20021;-84
2022/11/24 07:09:11;;;;;;;4.88;0.80;;;6.40;99.90;;;;;;6188967;23;20086;-86
2022/11/24 07:11:38;;;;;;;5.70;1.05;;;6.40;99.90;;;;;;6217317;23;20020;-85
2022/11/24 07:14:04;;;;;;;6.07;0.85;;;6.50;99.90;;;;;;6189048;23;20440;-83
2022/11/24 07:16:30;;;;;;;5.65;1.02;;;6.40;99.90;;;;;;6189262;23;20339;-85
2022/11/24 07:18:56;;;;;;;4.38;0.95;;;6.80;99.90;;;;;;6189438;23;20051;-83
2022/11/24 07:21:23;;;;;;;2.80;0.75;;;6.50;99.90;;;;;;6189579;23;20039;-86
2022/11/24 07:23:51;;;;;;;5.93;1.23;;;6.60;99.90;;;;;;6215686;23;20024;-85
2022/11/24 07:26:17;;;;;;;8.20;0.95;;;6.60;99.90;;;;;;6189216;23;20043;-85
2022/11/24 07:28:43;;;;;;;5.32;1.50;;;5.20;99.90;;;;;;6188857;23;20016;-88
2022/11/24 07:31:11;;;;;;;9.55;1.15;;;6.80;99.90;;;;;;6188739;23;20103;-86
2022/11/24 07:33:37;;;;;;;3.70;0.85;;;6.60;99.90;;;;;;6188800;23;20031;-84
2022/11/24 07:36:05;;;;;;;6.78;0.90;;;6.30;99.90;;;;;;6215715;23;20021;-85
2022/11/24 07:38:31;;;;;;;4.63;0.70;;;6.30;99.90;;;;;;6215472;23;20024;-87
2022/11/24 07:41:01;;;;;;;4.38;1.08;;;6.30;99.90;;;;;;6216065;23;20027;-85
2022/11/24 07:43:27;;;;;;;4.05;0.70;;;6.20;99.90;;;;;;6217739;23;20115;-84
2022/11/24 07:45:53;;;;;;;3.42;0.85;;;7.00;99.90;;;;;;6217465;23;20017;-81
2022/11/24 07:48:19;;;;;;;8.02;0.63;;;6.50;99.90;;;;;;6217882;23;20031;-83
2022/11/24 07:50:45;;;;;;;6.85;1.65;;;7.10;99.90;;;;;;6217915;23;20092;-87
2022/11/24 07:53:10;;;;;;;6.38;1.02;;;6.40;99.90;;;;;;6218809;23;20016;-92
2022/11/24 07:55:36;;;;;;;5.93;1.02;;;6.60;99.90;;;;;;6198622;23;20020;-92
2022/11/24 07:58:01;;;;;;;4.72;0.80;;;7.20;99.90;;;;;;6218617;23;20013;-93
2022/11/24 08:00:27;;;;;;;9.15;1.00;;;6.10;99.90;;;;;;6191888;23;20025;-94
2022/11/24 08:02:53;;;;;;;5.65;1.00;;;6.60;99.90;;;;;;6192001;23;20046;-94
2022/11/24 08:05:19;;;;;;;3.95;1.00;;;6.10;99.90;;;;;;6218400;23;20412;-90
2022/11/24 08:07:45;;;;;;;3.80;0.88;;;7.00;99.90;;;;;;6218842;23;20008;-92
2022/11/24 08:10:11;;;;;;;3.90;0.70;;;7.10;99.90;;;;;;6219609;23;20107;-96
2022/11/24 08:12:36;;;;;;;6.90;1.05;;;6.10;99.90;;;;;;6220666;23;20027;-90
2022/11/24 08:15:02;;;;;;;2.83;0.70;;;6.70;99.90;;;;;;6191506;23;20099;-90
2022/11/24 08:17:28;;;;;;;5.55;0.80;;;6.10;99.90;;;;;;6217460;23;20039;-90
2022/11/24 08:19:54;;;;;;;4.38;0.77;;;5.90;99.90;;;;;;6217795;23;20009;-89
2022/11/24 08:22:20;;;;;;;9.90;1.42;;;6.10;99.90;;;;;;6218025;23;20386;-91
2022/11/24 08:24:47;;;;;;;9.15;1.40;;;6.70;99.90;;;;;;6217429;23;20013;-91
2022/11/24 08:27:14;;;;;;;8.00;1.42;;;6.60;99.90;;;;;;6190428;23;20023;-90
2022/11/24 08:29:40;;;;;;;8.52;1.30;;;7.10;99.90;;;;;;6217007;23;20321;-86
2022/11/24 08:32:06;;;;;;;9.48;1.27;;;6.90;99.90;;;;;;6217513;23;20016;-88
2022/11/24 08:34:32;;;;;;;6.63;1.15;;;6.40;99.90;;;;;;6216914;23;20016;-88
2022/11/24 08:36:57;;;;;;;4.15;0.95;;;6.40;99.90;;;;;;6217396;23;20008;-88
2022/11/24 08:39:23;;;;;;;12.43;1.88;;;6.70;99.90;;;;;;6216991;23;20020;-89
2022/11/24 08:41:49;;;;;;;7.45;1.27;;;7.50;99.90;;;;;;6190407;23;20017;-90
2022/11/24 08:44:16;;;;;;;5.88;1.52;;;7.50;99.90;;;;;;6190657;23;20031;-89
2022/11/24 08:46:43;;;;;;;7.22;1.58;;;6.70;99.90;;;;;;6190877;23;20077;-89
2022/11/24 08:49:09;;;;;;;4.82;1.25;;;6.70;99.90;;;;;;6217377;23;20388;-89
2022/11/24 08:51:35;;;;;;;5.20;2.33;;;6.80;99.90;;;;;;6216974;23;20055;-90
2022/11/24 08:54:01;;;;;;;4.72;1.40;;;7.50;99.90;;;;;;6216867;23;20439;-90
2022/11/24 08:56:29;;;;;;;7.70;1.42;;;6.00;99.90;;;;;;6217013;23;20017;-91
2022/11/24 08:58:56;;;;;;;3.70;1.63;;;7.00;99.90;;;;;;6216610;23;20020;-89
2022/11/24 09:01:22;;;;;;;7.03;1.63;;;7.20;99.90;;;;;;6217307;23;20071;-87
2022/11/24 09:03:48;;;;;;;11.98;1.85;;;7.40;99.90;;;;;;6190073;23;20439;-90
2022/11/24 09:06:15;;;;;;;8.35;2.05;;;7.70;99.90;;;;;;6216827;23;20016;-91
2022/11/24 09:08:41;;;;;;;7.28;1.42;;;7.70;99.90;;;;;;6217236;23;20067;-89
2022/11/24 09:11:12;;;;;;;3.78;1.45;;;7.80;99.90;;;;;;6217403;23;20331;-88
2022/11/24 09:13:38;;;;;;;8.50;3.20;;;8.20;99.90;;;;;;6190560;23;20024;-89
2022/11/24 09:16:06;;;;;;;13.93;2.33;;;6.60;99.90;;;;;;6216969;23;20099;-90
2022/11/24 09:18:32;;;;;;;8.32;1.65;;;7.20;99.90;;;;;;6216799;23;20078;-90
2022/11/24 09:21:09;;;;;;;5.70;1.27;;;7.20;99.90;;;;;;6190223;23;20048;-89
2022/11/24 09:23:35;;;;;;;4.85;1.58;;;7.20;99.90;;;;;;6190319;23;20063;-88
2022/11/24 09:26:06;;;;;;;3.17;1.17;;;7.20;99.90;;;;;;6216886;23;20017;-91
2022/11/24 09:28:32;;;;;;;6.32;1.35;;;7.30;99.90;;;;;;6216514;23;20020;-90
2022/11/24 09:31:02;;;;;;;7.10;1.52;;;7.20;99.90;;;;;;6217037;23;20017;-91
2022/11/24 09:33:28;;;;;;;4.50;1.30;;;7.20;99.90;;;;;;6216793;23;20005;-90
2022/11/24 09:35:54;;;;;;;5.93;1.10;;;8.20;99.90;;;;;;6216647;23;20020;-88
2022/11/24 09:38:21;;;;;;;4.03;1.50;;;7.30;99.90;;;;;;6216887;23;20036;-87
2022/11/24 09:40:47;;;;;;;9.13;1.60;;;7.30;99.90;;;;;;6216929;23;20055;-86
2022/11/24 09:43:35;;;;;;;5.85;1.40;;;8.20;99.90;;;;;;6216806;23;20024;-90
2022/11/24 09:46:15;;;;;;;5.13;1.10;;;7.50;99.90;;;;;;6216400;23;20075;-91
2022/11/24 09:48:46;;;;;;;3.63;1.00;;;7.60;99.90;;;;;;6216388;23;20059;-90
2022/11/24 09:51:13;;;;;;;2.63;1.40;;;7.70;99.90;;;;;;6189721;23;20052;-90
2022/11/24 09:53:44;;;;;;;4.50;1.15;;;8.60;99.90;;;;;;6189813;23;20021;-90
2022/11/24 09:56:21;;;;;;;4.85;1.17;;;8.80;99.90;;;;;;6216279;23;20452;-90
2022/11/24 09:59:01;;;;;;;7.07;1.30;;;8.50;99.90;;;;;;6184552;23;20032;-87
2022/11/24 10:01:29;;;;;;;10.25;2.78;;;7.90;99.90;;;;;;6186632;23;20092;-92
2022/11/24 10:03:55;;;;;;;5.60;1.25;;;7.90;99.90;;;;;;6186218;23;20336;-88
2022/11/24 10:06:31;;;;;;;3.40;1.25;;;8.00;99.90;;;;;;6186313;23;20017;-90
2022/11/24 10:09:02;;;;;;;4.10;1.30;;;8.10;99.90;;;;;;6186095;23;20017;-92
2022/11/24 10:11:41;;;;;;;4.55;1.35;;;8.20;99.90;;;;;;6186858;23;20025;-86
2022/11/24 10:14:25;;;;;;;8.85;1.38;;;8.20;99.90;;;;;;6186794;23;20059;-91
2022/11/24 10:17:31;;;;;;;2.90;1.10;;;8.30;99.90;;;;;;6184767;23;20028;-89
2022/11/24 10:20:07;;;;;;;4.13;1.13;;;8.40;99.90;;;;;;6186596;23;20096;-88
2022/11/24 10:23:06;;;;;;;4.70;1.38;;;8.40;99.90;;;;;;6184797;23;20012;-91
2022/11/24 10:25:56;;;;;;;4.68;1.10;;;8.50;99.90;;;;;;6186070;23;20021;-89
2022/11/24 10:28:30;;;;;;;3.25;0.80;;;8.60;99.90;;;;;;6186403;23;20039;-89
2022/11/24 10:31:21;;;;;;;4.47;1.10;;;9.30;99.90;;;;;;6186402;23;20068;-91
2022/11/24 10:33:47;;;;;;;5.07;1.65;;;8.70;99.90;;;;;;6184438;23;20049;-89
2022/11/24 10:36:25;;;;;;;4.63;1.50;;;9.20;99.90;;;;;;6186252;23;20020;-89
2022/11/24 10:39:14;;;;;;;8.20;2.25;;;8.80;99.90;;;;;;6186387;23;20009;-88
2022/11/24 10:41:51;;;;;;;4.15;1.23;;;9.60;99.90;;;;;;6065466;23;20029;-86
2022/11/24 10:44:17;;;;;;;8.80;1.30;;;8.90;99.90;;;;;;6041926;23;20019;-87
2022/11/24 10:46:43;;;;;;;3.78;1.10;;;9.80;99.90;;;;;;6065744;23;20025;-88
2022/11/24 10:49:18;;;;;;;2.72;0.85;;;9.60;99.90;;;;;;6065858;23;20030;-85
2022/11/24 10:51:52;;;;;;;6.22;1.20;;;9.00;99.90;;;;;;6041828;23;20023;-85
2022/11/24 10:54:20;;;;;;;12.25;2.40;;;9.50;99.90;;;;;;6066337;23;20462;-86
2022/11/24 10:56:48;;;;;;;12.27;3.25;;;9.10;99.90;;;;;;6066348;23;20082;-90
2022/11/24 10:59:28;;;;;;;10.85;2.50;;;9.60;99.90;;;;;;6066808;23;20023;-86
2022/11/24 11:01:54;;;;;;;12.50;2.97;;;9.90;99.90;;;;;;6065901;23;20120;-90
2022/11/24 11:04:34;;;;;;;8.13;1.83;;;9.70;99.90;;;;;;6065931;23;20023;-87
2022/11/24 11:07:17;;;;;;;4.22;1.25;;;9.30;99.90;;;;;;6065790;23;20078;-85
2022/11/24 11:09:43;;;;;;;5.35;1.20;;;9.40;99.90;;;;;;6065937;23;20023;-86
2022/11/24 11:12:11;;;;;;;3.88;0.80;;;9.40;99.90;;;;;;6065813;23;20110;-86
2022/11/24 11:14:36;;;;;;;2.97;0.90;;;9.40;99.90;;;;;;6065525;23;20050;-86
2022/11/24 11:17:22;;;;;;;4.65;0.90;;;10.40;99.90;;;;;;6065941;23;20019;-90
2022/11/24 11:19:51;;;;;;;4.28;1.10;;;10.10;99.90;;;;;;6178737;23;20456;-88
2022/11/24 11:22:36;;;;;;;5.65;0.95;;;10.30;99.90;;;;;;6185544;23;20021;-85
2022/11/24 11:25:23;;;;;;;4.82;0.98;;;9.60;99.90;;;;;;6184224;23;20359;-85
2022/11/24 11:27:48;;;;;;;2.70;1.10;;;9.80;99.90;;;;;;6183919;23;20051;-86
2022/11/24 11:30:24;;;;;;;3.03;0.93;;;9.90;99.90;;;;;;6185740;23;20013;-89
2022/11/24 11:32:52;;;;;;;4.50;0.93;;;9.80;99.90;;;;;;6185778;23;20063;-87
2022/11/24 11:35:18;;;;;;;6.53;0.75;;;9.80;99.90;;;;;;6185448;23;20021;-89
2022/11/24 11:37:45;;;;;;;3.17;0.85;;;9.90;99.90;;;;;;6185738;23;20025;-87
2022/11/24 11:40:16;;;;;;;4.75;0.70;;;10.50;99.90;;;;;;6185447;23;20017;-88
2022/11/24 11:42:51;;;;;;;4.50;0.90;;;10.20;99.90;;;;;;6184887;23;20017;-84
2022/11/24 11:45:40;;;;;;;2.95;0.88;;;10.00;99.90;;;;;;6183942;23;20027;-84
2022/11/24 11:48:28;;;;;;;5.20;0.80;;;10.10;99.90;;;;;;6185643;23;20017;-88
2022/11/24 11:51:14;;;;;;;5.68;1.08;;;10.10;99.90;;;;;;6185417;23;20032;-85
2022/11/24 11:54:06;;;;;;;3.45;0.85;;;10.40;99.90;;;;;;6184751;23;20013;-86
2022/11/24 11:56:45;;;;;;;5.13;0.70;;;10.40;99.90;;;;;;6140252;23;20028;-85
2022/11/24 11:59:49;;;;;;;2.90;0.70;;;10.30;99.90;;;;;;6183667;23;20013;-85
2022/11/24 12:02:53;;;;;;;2.60;0.60;;;10.30;99.90;;;;;;6185141;23;20018;-84
2022/11/24 12:05:53;;;;;;;5.97;1.30;;;10.40;99.90;;;;;;6041364;23;20069;-86
2022/11/24 12:08:41;;;;;;;4.07;0.80;;;10.40;99.90;;;;;;6041373;23;20023;-87
2022/11/24 12:11:19;;;;;;;4.05;0.68;;;10.40;99.90;;;;;;6040969;23;20520;-87
2022/11/24 12:13:53;;;;;;;6.00;1.30;;;10.50;99.90;;;;;;6065867;23;20050;-85
2022/11/24 12:16:47;;;;;;;3.45;0.80;;;10.70;99.90;;;;;;6042096;23;20521;-88
2022/11/24 12:19:37;;;;;;;4.30;0.80;;;10.60;99.90;;;;;;6067381;23;20038;-92
2022/11/24 12:22:28;;;;;;;5.45;0.95;;;10.60;99.90;;;;;;6046140;23;20019;-94
2022/11/24 12:25:13;;;;;;;3.15;0.70;;;11.20;99.90;;;;;;5980225;24;20356;-89
2022/11/24 12:28:04;;;;;;;5.55;0.80;;;10.70;99.90;;;;;;5982112;24;20024;-89
2022/11/24 12:31:06;;;;;;;5.57;1.10;;;10.70;99.90;;;;;;5954132;24;20077;-89
2022/11/24 12:34:03;;;;;;;5.32;1.38;;;10.80;99.90;;;;;;5899212;24;20025;-90
2022/11/24 12:36:51;;;;;;;6.03;1.00;;;10.80;99.90;;;;;;5869624;24;20026;-90
2022/11/24 12:39:36;;;;;;;3.78;0.93;;;10.80;99.90;;;;;;5743885;24;20072;-91
2022/11/24 12:42:34;;;;;;;4.75;0.70;;;11.20;99.90;;;;;;5818727;24;20027;-87
2022/11/24 12:45:11;;;;;;;3.85;0.80;;;10.80;99.90;;;;;;5795951;24;20082;-87
2022/11/24 12:48:16;;;;;;;2.60;0.70;;;10.90;99.90;;;;;;5797125;24;20027;-89
2022/11/24 12:50:44;;;;;;;3.75;0.60;;;10.60;99.90;;;;;;5770139;24;20055;-87
2022/11/24 12:53:21;;;;;;;5.13;0.80;;;10.60;99.90;;;;;;5770856;24;20443;-85
2022/11/24 12:55:47;;;;;;;4.93;0.80;;;10.60;99.90;;;;;;5770549;24;20109;-88
2022/11/24 12:58:31;;;;;;;2.55;0.80;;;10.80;99.90;;;;;;5770077;24;20496;-86
2022/11/24 13:01:34;;;;;;;3.13;0.82;;;10.60;99.90;;;;;;5773614;24;20022;-90
2022/11/24 13:04:41;;;;;;;2.42;0.57;;;10.50;99.90;;;;;;5845415;24;20030;-94
2022/11/24 13:07:15;;;;;;;3.45;0.73;;;10.50;99.90;;;;;;5844421;24;20031;-82
2022/11/24 13:10:24;;;;;;;6.57;0.70;;;11.10;99.90;;;;;;5888753;24;20026;-84